<?xml version="1.0" encoding="UTF-8" standalone="no" ?>
<gpx xmlns="http://www.topografix.com/GPX/1/1" xmlns:xsi="http://www.w3.org/2001/XMLSchema-instance" xsi:schemaLocation="http://www.topografix.com/GPX/1/1 http://www.topografix.com/GPX/1/1/gpx.xsd" version="1.1" creator="VisuGPX - https://www.visugpx.com">
  <metadata>
    <name>ND-de-Londres_Chutes_Lamalou</name>
    <desc><![CDATA[Petite randonnées sans difficulté, les batons restent utiles pour certains passages caillouteux. Attention par temps humides de nombreux chemins devraient être très glissants. Je déconseille de faire cela en saison chaude, même si le Lamalou parait rafraichissant sur les photos, ce ne sera qu'un filet d'eau en juillet.
Les églises étaient fermés,  Les ruelles de ND de Londres sont très jolies et permettent de finir en beauté. Se fait en 3h30 avec une grande  pause déjeuner.]]></desc>
  </metadata>
  <trk>
    <name><![CDATA[SityTrail - ND-de-Londres_Chutes_Lamalou]]></name>
    <desc><![CDATA[Petite randonnées sans difficulté, les batons restent utiles pour certains passages caillouteux. Attention par temps humides de nombreux chemins devraient être très glissants. Je déconseille de faire cela en saison chaude, même si le Lamalou parait rafraichissant sur les photos, ce ne sera qu'un filet d'eau en juillet.
Les églises étaient fermés,  Les ruelles de ND de Londres sont très jolies et permettent de finir en beauté. Se fait en 3h30 avec une grande  pause déjeuner.]]></desc>
    <trkseg>
      <trkpt lat="43.82627" lon="3.77693">
        <ele>198</ele>
        <time>2024-03-06T10:36:42.694Z</time>
      </trkpt>
      <trkpt lat="43.8262" lon="3.77661">
        <ele>197</ele>
        <time>2024-03-06T10:36:42.694Z</time>
      </trkpt>
      <trkpt lat="43.8262" lon="3.77614">
        <ele>194</ele>
        <time>2024-03-06T10:36:53.493Z</time>
      </trkpt>
      <trkpt lat="43.82622" lon="3.77534">
        <ele>192</ele>
        <time>2024-03-06T10:36:57.692Z</time>
      </trkpt>
      <trkpt lat="43.82609" lon="3.77508">
        <ele>193</ele>
        <time>2024-03-06T10:37:02.695Z</time>
      </trkpt>
      <trkpt lat="43.82571" lon="3.77455">
        <ele>190</ele>
        <time>2024-03-06T10:37:07.687Z</time>
      </trkpt>
      <trkpt lat="43.82439" lon="3.77268">
        <ele>183</ele>
        <time>2024-03-06T10:37:11.696Z</time>
      </trkpt>
      <trkpt lat="43.82388" lon="3.77211">
        <ele>180</ele>
        <time>2024-03-06T10:37:20.689Z</time>
      </trkpt>
      <trkpt lat="43.82349" lon="3.77174">
        <ele>177</ele>
        <time>2024-03-06T10:37:25.682Z</time>
      </trkpt>
      <trkpt lat="43.82303" lon="3.77143">
        <ele>176</ele>
        <time>2024-03-06T10:37:29.690Z</time>
      </trkpt>
      <trkpt lat="43.82214" lon="3.7706">
        <ele>176</ele>
        <time>2024-03-06T10:37:34.695Z</time>
      </trkpt>
      <trkpt lat="43.82205" lon="3.77035">
        <ele>177</ele>
        <time>2024-03-06T10:37:39.606Z</time>
      </trkpt>
      <trkpt lat="43.82206" lon="3.76987">
        <ele>177</ele>
        <time>2024-03-06T10:37:43.652Z</time>
      </trkpt>
      <trkpt lat="43.82176" lon="3.76942">
        <ele>183</ele>
        <time>2024-03-06T10:37:47.948Z</time>
      </trkpt>
      <trkpt lat="43.82063" lon="3.76814">
        <ele>180</ele>
        <time>2024-03-06T10:37:52.447Z</time>
      </trkpt>
      <trkpt lat="43.81802" lon="3.76616">
        <ele>178</ele>
        <time>2024-03-06T10:37:57.128Z</time>
      </trkpt>
      <trkpt lat="43.8144" lon="3.76247">
        <ele>173</ele>
        <time>2024-03-06T10:38:01.147Z</time>
      </trkpt>
      <trkpt lat="43.8127" lon="3.76286">
        <ele>169</ele>
        <time>2024-03-06T10:38:05.151Z</time>
      </trkpt>
      <trkpt lat="43.81084" lon="3.76213">
        <ele>170</ele>
        <time>2024-03-06T10:38:09.686Z</time>
      </trkpt>
      <trkpt lat="43.80889" lon="3.76149">
        <ele>173</ele>
        <time>2024-03-06T10:38:14.485Z</time>
      </trkpt>
      <trkpt lat="43.80694" lon="3.75994">
        <ele>171</ele>
        <time>2024-03-06T10:38:18.987Z</time>
      </trkpt>
      <trkpt lat="43.80616" lon="3.75986">
        <ele>170</ele>
        <time>2024-03-06T10:38:23.686Z</time>
      </trkpt>
      <trkpt lat="43.80592" lon="3.76054">
        <ele>172</ele>
        <time>2024-03-06T10:38:27.970Z</time>
      </trkpt>
      <trkpt lat="43.8066" lon="3.76277">
        <ele>177</ele>
        <time>2024-03-06T10:38:32.486Z</time>
      </trkpt>
      <trkpt lat="43.80753" lon="3.76458">
        <ele>183</ele>
        <time>2024-03-06T10:38:36.707Z</time>
      </trkpt>
      <trkpt lat="43.80821" lon="3.76659">
        <ele>195</ele>
        <time>2024-03-06T10:38:45.795Z</time>
      </trkpt>
      <trkpt lat="43.80883" lon="3.76767">
        <ele>200</ele>
        <time>2024-03-06T10:38:49.927Z</time>
      </trkpt>
      <trkpt lat="43.80979" lon="3.77046">
        <ele>205</ele>
        <time>2024-03-06T10:38:54.434Z</time>
      </trkpt>
      <trkpt lat="43.81022" lon="3.77174">
        <ele>206</ele>
        <time>2024-03-06T10:38:58.893Z</time>
      </trkpt>
      <trkpt lat="43.81025" lon="3.77273">
        <ele>202</ele>
        <time>2024-03-06T10:39:03.269Z</time>
      </trkpt>
      <trkpt lat="43.81025" lon="3.77415">
        <ele>201</ele>
        <time>2024-03-06T10:40:14.249Z</time>
      </trkpt>
      <trkpt lat="43.81038" lon="3.77676">
        <ele>193</ele>
        <time>2024-03-06T10:40:18.671Z</time>
      </trkpt>
      <trkpt lat="43.80935" lon="3.78076">
        <ele>179</ele>
        <time>2024-03-06T10:40:23.110Z</time>
      </trkpt>
      <trkpt lat="43.80976" lon="3.78432">
        <ele>179</ele>
        <time>2024-03-06T10:40:27.701Z</time>
      </trkpt>
      <trkpt lat="43.80985" lon="3.78522">
        <ele>178</ele>
        <time>2024-03-06T10:40:31.991Z</time>
      </trkpt>
      <trkpt lat="43.80654" lon="3.78831">
        <ele>179</ele>
        <time>2024-03-06T10:40:36.371Z</time>
      </trkpt>
      <trkpt lat="43.80805" lon="3.7902">
        <ele>191</ele>
        <time>2024-03-06T10:40:40.650Z</time>
      </trkpt>
      <trkpt lat="43.80852" lon="3.79067">
        <ele>195</ele>
        <time>2024-03-06T10:40:44.970Z</time>
      </trkpt>
      <trkpt lat="43.80861" lon="3.79153">
        <ele>199</ele>
        <time>2024-03-06T10:40:49.490Z</time>
      </trkpt>
      <trkpt lat="43.80799" lon="3.79234">
        <ele>192</ele>
        <time>2024-03-06T10:40:53.692Z</time>
      </trkpt>
      <trkpt lat="43.80734" lon="3.79329">
        <ele>190</ele>
        <time>2024-03-06T10:40:58.495Z</time>
      </trkpt>
      <trkpt lat="43.80694" lon="3.79397">
        <ele>187</ele>
        <time>2024-03-06T10:41:02.690Z</time>
      </trkpt>
      <trkpt lat="43.80554" lon="3.79496">
        <ele>186</ele>
        <time>2024-03-06T10:41:07.032Z</time>
      </trkpt>
      <trkpt lat="43.80527" lon="3.7956">
        <ele>188</ele>
        <time>2024-03-06T10:41:19.684Z</time>
      </trkpt>
      <trkpt lat="43.8048" lon="3.79672">
        <ele>185</ele>
        <time>2024-03-06T10:41:24.694Z</time>
      </trkpt>
      <trkpt lat="43.80412" lon="3.79844">
        <ele>183</ele>
        <time>2024-03-06T10:41:29.702Z</time>
      </trkpt>
      <trkpt lat="43.80421" lon="3.79994">
        <ele>183</ele>
        <time>2024-03-06T10:41:34.168Z</time>
      </trkpt>
      <trkpt lat="43.80517" lon="3.80007">
        <ele>186</ele>
        <time>2024-03-06T10:41:38.529Z</time>
      </trkpt>
      <trkpt lat="43.8057" lon="3.8005">
        <ele>187</ele>
        <time>2024-03-06T10:41:43.068Z</time>
      </trkpt>
      <trkpt lat="43.80619" lon="3.80041">
        <ele>188</ele>
        <time>2024-03-06T10:41:47.326Z</time>
      </trkpt>
      <trkpt lat="43.80719" lon="3.80007">
        <ele>192</ele>
        <time>2024-03-06T10:41:51.566Z</time>
      </trkpt>
      <trkpt lat="43.80805" lon="3.8005">
        <ele>197</ele>
        <time>2024-03-06T10:41:55.697Z</time>
      </trkpt>
      <trkpt lat="43.80886" lon="3.80037">
        <ele>205</ele>
        <time>2024-03-06T10:41:59.985Z</time>
      </trkpt>
      <trkpt lat="43.80969" lon="3.80024">
        <ele>211</ele>
        <time>2024-03-06T10:42:04.328Z</time>
      </trkpt>
      <trkpt lat="43.8105" lon="3.8005">
        <ele>222</ele>
        <time>2024-03-06T10:42:08.526Z</time>
      </trkpt>
      <trkpt lat="43.8109" lon="3.80114">
        <ele>221</ele>
        <time>2024-03-06T10:42:12.702Z</time>
      </trkpt>
      <trkpt lat="43.81143" lon="3.80148">
        <ele>224</ele>
        <time>2024-03-06T10:42:30.689Z</time>
      </trkpt>
      <trkpt lat="43.81245" lon="3.80144">
        <ele>233</ele>
        <time>2024-03-06T10:42:35.166Z</time>
      </trkpt>
      <trkpt lat="43.81304" lon="3.80136">
        <ele>239</ele>
        <time>2024-03-06T10:42:39.387Z</time>
      </trkpt>
      <trkpt lat="43.81406" lon="3.80127">
        <ele>246</ele>
        <time>2024-03-06T10:42:43.867Z</time>
      </trkpt>
      <trkpt lat="43.81446" lon="3.80123">
        <ele>247</ele>
        <time>2024-03-06T10:42:48.266Z</time>
      </trkpt>
      <trkpt lat="43.81471" lon="3.80024">
        <ele>243</ele>
        <time>2024-03-06T10:42:52.690Z</time>
      </trkpt>
      <trkpt lat="43.8149" lon="3.79925">
        <ele>238</ele>
        <time>2024-03-06T10:42:57.026Z</time>
      </trkpt>
      <trkpt lat="43.81539" lon="3.79839">
        <ele>234</ele>
        <time>2024-03-06T10:43:01.689Z</time>
      </trkpt>
      <trkpt lat="43.81561" lon="3.79745">
        <ele>228</ele>
        <time>2024-03-06T10:43:05.847Z</time>
      </trkpt>
      <trkpt lat="43.81558" lon="3.79672">
        <ele>224</ele>
        <time>2024-03-06T10:43:10.285Z</time>
      </trkpt>
      <trkpt lat="43.8158" lon="3.79586">
        <ele>219</ele>
        <time>2024-03-06T10:43:14.692Z</time>
      </trkpt>
      <trkpt lat="43.81614" lon="3.79526">
        <ele>212</ele>
        <time>2024-03-06T10:43:19.185Z</time>
      </trkpt>
      <trkpt lat="43.8162" lon="3.79419">
        <ele>200</ele>
        <time>2024-03-06T10:43:23.546Z</time>
      </trkpt>
      <trkpt lat="43.81623" lon="3.79372">
        <ele>196</ele>
        <time>2024-03-06T10:43:28.026Z</time>
      </trkpt>
      <trkpt lat="43.81583" lon="3.79239">
        <ele>186</ele>
        <time>2024-03-06T10:43:32.604Z</time>
      </trkpt>
      <trkpt lat="43.81604" lon="3.79196">
        <ele>186</ele>
        <time>2024-03-06T10:43:36.667Z</time>
      </trkpt>
      <trkpt lat="43.81648" lon="3.79282">
        <ele>187</ele>
        <time>2024-03-06T10:43:41.384Z</time>
      </trkpt>
      <trkpt lat="43.81679" lon="3.79359">
        <ele>188</ele>
        <time>2024-03-06T10:43:45.485Z</time>
      </trkpt>
      <trkpt lat="43.81713" lon="3.7944">
        <ele>188</ele>
        <time>2024-03-06T10:43:49.684Z</time>
      </trkpt>
      <trkpt lat="43.81737" lon="3.79466">
        <ele>189</ele>
        <time>2024-03-06T10:43:53.944Z</time>
      </trkpt>
      <trkpt lat="43.8171" lon="3.79402">
        <ele>192</ele>
        <time>2024-03-06T10:43:58.204Z</time>
      </trkpt>
      <trkpt lat="43.81688" lon="3.79359">
        <ele>189</ele>
        <time>2024-03-06T10:44:02.544Z</time>
      </trkpt>
      <trkpt lat="43.8166" lon="3.79299">
        <ele>188</ele>
        <time>2024-03-06T10:44:06.690Z</time>
      </trkpt>
      <trkpt lat="43.81617" lon="3.79183">
        <ele>186</ele>
        <time>2024-03-06T10:44:11.066Z</time>
      </trkpt>
      <trkpt lat="43.8166" lon="3.79161">
        <ele>197</ele>
        <time>2024-03-06T10:44:15.444Z</time>
      </trkpt>
      <trkpt lat="43.817" lon="3.79153">
        <ele>204</ele>
        <time>2024-03-06T10:44:19.585Z</time>
      </trkpt>
      <trkpt lat="43.81762" lon="3.7914">
        <ele>211</ele>
        <time>2024-03-06T10:44:24.194Z</time>
      </trkpt>
      <trkpt lat="43.81802" lon="3.79123">
        <ele>220</ele>
        <time>2024-03-06T10:44:28.478Z</time>
      </trkpt>
      <trkpt lat="43.81822" lon="3.79095">
        <ele>226</ele>
        <time>2024-03-06T10:44:33.193Z</time>
      </trkpt>
      <trkpt lat="43.81848" lon="3.79079">
        <ele>225</ele>
        <time>2024-03-06T10:44:37.671Z</time>
      </trkpt>
      <trkpt lat="43.81822" lon="3.79083">
        <ele>226</ele>
        <time>2024-03-06T10:44:41.684Z</time>
      </trkpt>
      <trkpt lat="43.8184" lon="3.79033">
        <ele>224</ele>
        <time>2024-03-06T10:44:45.690Z</time>
      </trkpt>
      <trkpt lat="43.81827" lon="3.7893">
        <ele>211</ele>
        <time>2024-03-06T10:44:50.613Z</time>
      </trkpt>
      <trkpt lat="43.81843" lon="3.78874">
        <ele>210</ele>
        <time>2024-03-06T10:44:54.696Z</time>
      </trkpt>
      <trkpt lat="43.81846" lon="3.78805">
        <ele>218</ele>
        <time>2024-03-06T10:44:59.016Z</time>
      </trkpt>
      <trkpt lat="43.81911" lon="3.78801">
        <ele>231</ele>
        <time>2024-03-06T10:45:03.294Z</time>
      </trkpt>
      <trkpt lat="43.81928" lon="3.78774">
        <ele>230</ele>
        <time>2024-03-06T10:45:07.632Z</time>
      </trkpt>
      <trkpt lat="43.81929" lon="3.78711">
        <ele>226</ele>
        <time>2024-03-06T10:45:12.173Z</time>
      </trkpt>
      <trkpt lat="43.81934" lon="3.78657">
        <ele>213</ele>
        <time>2024-03-06T10:45:16.392Z</time>
      </trkpt>
      <trkpt lat="43.81967" lon="3.78612">
        <ele>205</ele>
        <time>2024-03-06T10:45:20.613Z</time>
      </trkpt>
      <trkpt lat="43.82041" lon="3.78487">
        <ele>197</ele>
        <time>2024-03-06T10:45:25.014Z</time>
      </trkpt>
      <trkpt lat="43.82118" lon="3.78393">
        <ele>192</ele>
        <time>2024-03-06T10:45:38.371Z</time>
      </trkpt>
      <trkpt lat="43.82134" lon="3.78368">
        <ele>191</ele>
        <time>2024-03-06T10:45:42.373Z</time>
      </trkpt>
      <trkpt lat="43.82147" lon="3.78359">
        <ele>191</ele>
        <time>2024-03-06T10:45:47.471Z</time>
      </trkpt>
      <trkpt lat="43.82164" lon="3.78332">
        <ele>189</ele>
        <time>2024-03-06T10:45:52.133Z</time>
      </trkpt>
      <trkpt lat="43.8217" lon="3.78306">
        <ele>188</ele>
        <time>2024-03-06T10:45:56.131Z</time>
      </trkpt>
      <trkpt lat="43.82193" lon="3.78288">
        <ele>188</ele>
        <time>2024-03-06T10:46:00.311Z</time>
      </trkpt>
      <trkpt lat="43.82225" lon="3.78245">
        <ele>189</ele>
        <time>2024-03-06T10:46:04.650Z</time>
      </trkpt>
      <trkpt lat="43.82247" lon="3.78217">
        <ele>188</ele>
        <time>2024-03-06T10:46:08.651Z</time>
      </trkpt>
      <trkpt lat="43.82271" lon="3.78195">
        <ele>190</ele>
        <time>2024-03-06T10:46:12.694Z</time>
      </trkpt>
      <trkpt lat="43.82311" lon="3.78161">
        <ele>191</ele>
        <time>2024-03-06T10:46:16.950Z</time>
      </trkpt>
      <trkpt lat="43.82331" lon="3.78131">
        <ele>192</ele>
        <time>2024-03-06T10:46:21.253Z</time>
      </trkpt>
      <trkpt lat="43.82337" lon="3.78103">
        <ele>192</ele>
        <time>2024-03-06T10:46:25.650Z</time>
      </trkpt>
      <trkpt lat="43.82336" lon="3.7807">
        <ele>192</ele>
        <time>2024-03-06T10:46:29.891Z</time>
      </trkpt>
      <trkpt lat="43.8235" lon="3.78063">
        <ele>189</ele>
        <time>2024-03-06T10:47:07.679Z</time>
      </trkpt>
      <trkpt lat="43.8236" lon="3.78047">
        <ele>189</ele>
        <time>2024-03-06T10:47:12.749Z</time>
      </trkpt>
      <trkpt lat="43.82368" lon="3.78034">
        <ele>186</ele>
        <time>2024-03-06T10:47:17.699Z</time>
      </trkpt>
      <trkpt lat="43.82374" lon="3.78026">
        <ele>186</ele>
        <time>2024-03-06T10:47:22.697Z</time>
      </trkpt>
      <trkpt lat="43.82409" lon="3.78068">
        <ele>186</ele>
        <time>2024-03-06T10:47:27.684Z</time>
      </trkpt>
      <trkpt lat="43.8245" lon="3.78106">
        <ele>189</ele>
        <time>2024-03-06T10:47:55.703Z</time>
      </trkpt>
      <trkpt lat="43.82464" lon="3.78134">
        <ele>191</ele>
        <time>2024-03-06T10:47:59.700Z</time>
      </trkpt>
      <trkpt lat="43.82495" lon="3.78135">
        <ele>190</ele>
        <time>2024-03-06T10:48:04.051Z</time>
      </trkpt>
      <trkpt lat="43.82522" lon="3.78145">
        <ele>189</ele>
        <time>2024-03-06T10:48:08.371Z</time>
      </trkpt>
      <trkpt lat="43.82553" lon="3.78114">
        <ele>188</ele>
        <time>2024-03-06T10:48:12.696Z</time>
      </trkpt>
      <trkpt lat="43.82584" lon="3.78085">
        <ele>186</ele>
        <time>2024-03-06T10:48:17.110Z</time>
      </trkpt>
      <trkpt lat="43.82608" lon="3.78069">
        <ele>184</ele>
        <time>2024-03-06T10:48:21.710Z</time>
      </trkpt>
      <trkpt lat="43.82625" lon="3.78036">
        <ele>185</ele>
        <time>2024-03-06T10:48:26.255Z</time>
      </trkpt>
      <trkpt lat="43.8264" lon="3.78003">
        <ele>185</ele>
        <time>2024-03-06T10:48:30.630Z</time>
      </trkpt>
      <trkpt lat="43.82661" lon="3.77974">
        <ele>186</ele>
        <time>2024-03-06T10:48:35.353Z</time>
      </trkpt>
      <trkpt lat="43.82674" lon="3.77962">
        <ele>186</ele>
        <time>2024-03-06T10:48:39.693Z</time>
      </trkpt>
      <trkpt lat="43.82694" lon="3.77925">
        <ele>182</ele>
        <time>2024-03-06T10:48:44.677Z</time>
      </trkpt>
      <trkpt lat="43.82666" lon="3.77916">
        <ele>182</ele>
        <time>2024-03-06T10:48:48.977Z</time>
      </trkpt>
      <trkpt lat="43.82652" lon="3.77907">
        <ele>184</ele>
        <time>2024-03-06T10:48:53.357Z</time>
      </trkpt>
      <trkpt lat="43.8264" lon="3.77869">
        <ele>187</ele>
        <time>2024-03-06T10:48:57.684Z</time>
      </trkpt>
      <trkpt lat="43.82628" lon="3.77846">
        <ele>189</ele>
        <time>2024-03-06T10:49:01.693Z</time>
      </trkpt>
      <trkpt lat="43.82611" lon="3.77807">
        <ele>191</ele>
        <time>2024-03-06T10:49:06.537Z</time>
      </trkpt>
      <trkpt lat="43.82588" lon="3.77784">
        <ele>194</ele>
        <time>2024-03-06T10:49:10.710Z</time>
      </trkpt>
      <trkpt lat="43.82597" lon="3.77766">
        <ele>193</ele>
        <time>2024-03-06T10:49:15.496Z</time>
      </trkpt>
      <trkpt lat="43.82594" lon="3.77735">
        <ele>197</ele>
        <time>2024-03-06T10:49:19.705Z</time>
      </trkpt>
      <trkpt lat="43.82576" lon="3.77708">
        <ele>197</ele>
        <time>2024-03-06T10:49:24.238Z</time>
      </trkpt>
      <trkpt lat="43.82602" lon="3.77688">
        <ele>198</ele>
        <time>2024-03-06T10:49:28.596Z</time>
      </trkpt>
      <trkpt lat="43.82614" lon="3.77719">
        <ele>198</ele>
        <time>2024-03-06T10:49:32.694Z</time>
      </trkpt>
      <trkpt lat="43.8262" lon="3.77733">
        <ele>198</ele>
        <time>2024-03-06T10:49:37.355Z</time>
      </trkpt>
      <trkpt lat="43.82639" lon="3.77715">
        <ele>197</ele>
        <time>2024-03-06T10:49:41.718Z</time>
      </trkpt>
      <trkpt lat="43.82631" lon="3.77697">
        <ele>198</ele>
        <time>2024-03-06T10:49:45.894Z</time>
      </trkpt>
    </trkseg>
  </trk>
</gpx>